To NAV CANADA Home Page Login to a new session Search on AWWS site Feedback and Comments Disclaimer Vers la page française équivalente Tips FAQ What's new on the site To the Forecasts and Observations / NOTAM section To "File a Flight Plan" website Publications and other links Update of the User's profile FIC Telephone Numbers My Weather Data Folder Route Weather Data Regional Weather Data Local Weather Data To the Forecasts and Observations / NOTAM section
Request Generated 05/25/2017 at 01:08:01 UTC . Weather information available at that time is displayed.

METAR/TAF

GANDER/GANDER INTL/NL    

METAR CYQX 250100Z 34012G18KT 8SM -DZ OVC003 03/02 A2987 RMK SF8
SLP120=
SPECI CYQX 250048Z 34009KT 8SM -DZ OVC003 03/02 A2986 RMK SF8 SLP119=
METAR CYQX 250000Z 33011KT 15SM -DZ BKN004 04/03 A2984 RMK SF7
SLP113=
SPECI CYQX 242334Z 01010KT 15SM -DZ BKN004 06/05 A2983 RMK SF7
SLP107=
SPECI CYQX 242308Z 01012G17KT 15SM -DZ BKN005 BKN013 07/05 A2982 RMK
SF6SC1 HIER SC/ CI TR SLP103=
METAR CYQX 242300Z 36014G20KT 15SM -DZ SCT005 BKN013 07/05 A2981 RMK
SF4SC3 VIS LWR N HIER SC/CI TR SLP102=

TAF CYQX 242338Z 2500/2524 01010G20KT 3SM -DZ BR OVC005 TEMPO
2500/2503 6SM BR OVC010
FM250300 33010KT 3/4SM -DZ BR OVC003 TEMPO 2503/2515 2SM BR
OVC004 PROB40 2504/2510 1/4SM -FZDZ FZFG VV001
FM251500 34012KT 6SM BR OVC010 TEMPO 2515/2521 4SM -DZ BR OVC005
FM252100 36010KT P6SM SCT012
RMK NXT FCST BY 250600Z=
Your time UTC time
Weather data provided by Environment Canada and NAV CANADA